• Join FlightAware (Why Join?)
  • Login
  • US Flag 
10:23PM EDT


 

Airport Tracker/Info


-or-


 

Live Flight TrackerFlight Track Log ✈ SKW6492 ✈ 10-May-2013 ✈ KDEN - KCOD

Flight Track Log - Related Links

Times and Time Zones

All times are in EDT time to prevent confusion due to time zone crossing. See the SKW6492 flight status page for this flight to view local times or setup timezone preferences in your user account.

Time Position Orientation Groundspeed Altitude Reporting Facility
EDT Latitude Longitude Course Direction KTS MPH feet Rate Location/Type
09:42PM 39.9500 -104.6833 346° North 209 241 8,400  Level Denver TRACON
09:43PM 40.0167 -104.6667 11° North 259 298 10,000 1,200 Climbing Denver TRACON
09:44PM 40.0319 -104.6639 North 253 291 10,000 60 Level Denver Center
09:45PM 40.1000 -104.6753 353° North 249 287 10,100 960 Climbing Denver Center
09:46PM 40.1800 -104.6950 349° North 270 311 12,100 2,220 Climbing Denver Center
09:47PM 40.2556 -104.7150 349° North 274 315 14,800 2,460 Climbing Denver Center
09:48PM 40.3259 -104.8197 346° North  Level FlightAware Approximate
09:48PM 40.3411 -104.7364 349° North 288 331 17,300  Level Denver Center
09:49PM 40.4256 -104.7589 349° North 313 360 18,200 1,260 Climbing Denver Center
09:50PM 40.5269 -104.7861 348° North 341 392 20,000 1,560 Climbing Denver Center
09:51PM 40.6236 -104.8097 349° North 353 406 21,500 1,440 Climbing Denver Center
09:52PM 40.7219 -104.8339 349° North 358 412 23,000 1,620 Climbing Denver Center
09:53PM 40.8136 -104.8619 347° North 343 395 24,900 1,740 Climbing Denver Center
09:54PM 40.9158 -104.9131 339° North 348 400 26,700 1,260 Climbing Denver Center
09:55PM 40.9964 -104.9839 326° Northwest 367 422 27,600 960 Climbing Denver Center
09:56PM 41.0864 -105.0769 322° Northwest 369 425 28,700 1,020 Climbing Denver Center
09:57PM 41.1658 -105.1606 322° Northwest 377 434 29,800 1,140 Climbing Denver Center
09:58PM 41.2556 -105.2592 320° Northwest 375 432 31,100 960 Climbing Denver Center
09:59PM 41.3331 -105.3408 322° Northwest 372 428 31,900 420 Climbing Denver Center
10:00PM 41.4128 -105.4267 321° Northwest 377 434 32,000  Climbing Denver Center
10:01PM 41.5075 -105.5311 320° Northwest 388 447 32,000  Level Denver Center
10:02PM 41.5906 -105.6219 321° Northwest 397 457 32,000  Level Denver Center
10:03PM 41.6825 -105.7200 321° Northwest 384 442 32,000  Level Denver Center
10:04PM 41.7611 -105.8064 321° Northwest 383 441 32,000  Level Denver Center
10:05PM 41.8519 -105.9069 321° Northwest 377 434 32,000  Level Denver Center
10:06PM 41.9189 -105.9808 321° Northwest 383 441 32,000  Level Denver Center
10:07PM 42.0103 -106.0806 321° Northwest 381 438 32,000  Level Denver Center
10:08PM 42.0989 -106.1786 321° Northwest 371 427 32,000  Level Denver Center
10:09PM 42.1742 -106.2653 320° Northwest 372 428 32,000  Level Denver Center
10:10PM 42.2653 -106.3656 321° Northwest 378 435 32,000  Level Denver Center
10:12PM 42.3408 -106.4514 320° Northwest 372 428 32,000  Level Denver Center
10:13PM 42.4300 -106.5508 321° Northwest 372 428 32,000  Level Denver Center
10:14PM 42.5072 -106.6375 320° Northwest 375 432 32,000  Level Denver Center
10:15PM 42.5967 -106.7403 320° Northwest 377 434 32,000  Level Denver Center
10:16PM 42.6736 -106.8272 320° Northwest 377 434 32,000  Level Denver Center
10:17PM 42.7506 -106.9158 320° Northwest 377 434 32,000  Level Denver Center
10:18PM 42.8408 -107.0183 320° Northwest 378 435 32,000  Level Denver Center
10:19PM 42.9431 -107.1372 320° Northwest 378 435 32,000  Level Denver Center
10:20PM 43.0069 -107.2114 320° Northwest 378 435 32,000  Level Denver Center
10:21PM 43.1039 -107.3242 320° Northwest 380 437 32,000  Level Denver Center
10:22PM 43.1811 -107.4125 320° Northwest 379 436 32,000  Level Denver Center
10:22PM 43.2181 -107.4597 317° Northwest 379 436 32,000  Level Salt Lake Center
10:23PM 43.2947 -107.5492 320° Northwest 378 435 32,000  Level Salt Lake Center
10:24PM 43.3825 -107.6522 320° Northwest 372 428 32,000  Level Salt Lake Center
10:25PM 43.4572 -107.7383 320° Northwest 368 423 32,000  Level Salt Lake Center
10:27PM 43.5303 -107.8244 319° Northwest 363 418 32,000  Level Salt Lake Center
10:28PM 43.6150 -107.9247 319° Northwest 360 414 32,000 -600 Level Salt Lake Center
10:29PM 43.6894 -108.0139 319° Northwest 367 422 30,800 -2,280 Descending Salt Lake Center
10:30PM 43.7794 -108.1222 319° Northwest 382 440 27,400 -3,120 Descending Salt Lake Center
10:31PM 43.8558 -108.2142 319° Northwest 379 436 24,500 -2,880 Descending Salt Lake Center
10:32PM 43.9294 -108.3028 319° Northwest 368 423 21,600 -3,120 Descending Salt Lake Center
10:33PM 44.0125 -108.4039 319° Northwest 358 412 18,200 -2,880 Descending Salt Lake Center
10:34PM 44.0833 -108.4883 319° Northwest 354 407 15,700 -2,880 Descending Salt Lake Center
10:35PM 44.1619 -108.5847 319° Northwest 346 398 12,300 -2,760 Descending Salt Lake Center
10:36PM 44.2281 -108.6650 319° Northwest 338 389 10,100 -1,140 Descending Salt Lake Center
10:37PM 44.2919 -108.7450 318° Northwest 306 352 10,000 -60 Descending Salt Lake Center
10:38PM 44.3356 -108.7983 319° Northwest 250 288 10,000 -420 Level Salt Lake Center
10:39PM 44.3678 -108.8697 302° West 233 268 9,200 -900 Descending Salt Lake Center
10:40PM 44.4000 -108.9564 298° West 227 261 8,200 -1,020 Descending Salt Lake Center